createdAt,value
2022-12-04T00:01:10.274Z,2.67
2022-12-04T00:03:37.548Z,2.71
2022-12-04T00:06:14.657Z,2.45
2022-12-04T00:08:42.733Z,2.53
2022-12-04T00:11:10.702Z,2.77
2022-12-04T00:13:38.571Z,2.79
2022-12-04T00:16:07.359Z,2.85
2022-12-04T00:18:34.685Z,2.80
2022-12-04T00:21:04.712Z,2.90
2022-12-04T00:23:31.774Z,2.82
2022-12-04T00:26:09.236Z,2.95
2022-12-04T00:28:36.152Z,3.06
2022-12-04T00:31:10.858Z,3.15
2022-12-04T00:33:37.563Z,2.94
2022-12-04T00:36:07.584Z,3.01
2022-12-04T00:38:35.096Z,2.82
2022-12-04T00:41:01.888Z,3.03
2022-12-04T00:43:29.174Z,3.20
2022-12-04T00:45:56.110Z,3.35
2022-12-04T00:48:23.018Z,3.69
2022-12-04T00:50:49.792Z,3.62
2022-12-04T00:53:16.373Z,3.58
2022-12-04T00:55:43.713Z,3.64
2022-12-04T00:58:10.908Z,3.85
2022-12-04T01:00:39.893Z,4.04
2022-12-04T01:03:07.121Z,4.10
2022-12-04T01:05:42.303Z,4.10
2022-12-04T01:08:09.826Z,3.94
2022-12-04T01:10:39.134Z,3.85
2022-12-04T01:13:05.862Z,3.83
2022-12-04T01:15:32.573Z,3.73
2022-12-04T01:17:59.103Z,3.63
2022-12-04T01:20:25.730Z,3.42
2022-12-04T01:22:52.211Z,3.31
2022-12-04T01:25:18.795Z,3.38
2022-12-04T01:27:47.487Z,3.33
2022-12-04T01:30:14.116Z,3.53
2022-12-04T01:32:40.646Z,3.57
2022-12-04T01:35:07.989Z,3.56
2022-12-04T01:37:34.572Z,3.35
2022-12-04T01:40:01.109Z,3.51
2022-12-04T01:42:27.667Z,3.49
2022-12-04T01:45:31.296Z,3.46
2022-12-04T01:48:10.857Z,3.45
2022-12-04T01:50:37.529Z,3.54
2022-12-04T01:53:04.052Z,3.57
2022-12-04T01:55:31.169Z,3.59
2022-12-04T01:57:59.342Z,3.61
2022-12-04T02:00:25.853Z,3.50
2022-12-04T02:02:52.936Z,3.31
2022-12-04T02:05:21.322Z,3.30
2022-12-04T02:07:51.356Z,3.26
2022-12-04T02:10:18.811Z,3.22
2022-12-04T02:12:58.182Z,2.92
2022-12-04T02:15:53.049Z,2.94
2022-12-04T02:18:30.877Z,2.79
2022-12-04T02:21:03.444Z,2.77
2022-12-04T02:23:43.257Z,2.77
2022-12-04T02:26:15.613Z,2.83
2022-12-04T02:28:50.022Z,2.89
2022-12-04T02:31:24.002Z,2.89
2022-12-04T02:33:59.843Z,2.74
2022-12-04T02:36:30.172Z,2.52
2022-12-04T02:39:19.804Z,2.53
2022-12-04T02:41:56.520Z,2.50
2022-12-04T02:44:28.158Z,2.64
2022-12-04T02:46:58.347Z,2.59
2022-12-04T02:49:33.460Z,2.65
2022-12-04T02:52:00.601Z,2.49
2022-12-04T02:54:33.438Z,2.52
2022-12-04T02:57:02.157Z,2.63
2022-12-04T02:59:40.837Z,2.78
2022-12-04T03:02:25.612Z,2.71
2022-12-04T03:04:53.574Z,2.81
2022-12-04T03:07:46.442Z,2.97
2022-12-04T03:10:34.621Z,2.94
2022-12-04T03:13:24.382Z,2.63
2022-12-04T03:15:54.695Z,2.56
2022-12-04T03:18:26.920Z,2.53
2022-12-04T03:20:59.041Z,2.50
2022-12-04T03:23:32.850Z,2.59
2022-12-04T03:26:02.794Z,2.76
2022-12-04T03:28:34.768Z,2.74
2022-12-04T03:31:04.680Z,2.60
2022-12-04T03:33:38.698Z,2.53
2022-12-04T03:36:16.765Z,2.55
2022-12-04T03:39:33.112Z,2.48
2022-12-04T03:42:01.326Z,2.57
2022-12-04T03:44:34.011Z,2.58
2022-12-04T03:47:06.705Z,2.37
2022-12-04T03:49:41.899Z,2.29
2022-12-04T03:52:22.476Z,2.27
2022-12-04T03:54:50.126Z,2.42
2022-12-04T03:57:20.649Z,2.52
2022-12-04T03:59:55.610Z,2.74
2022-12-04T04:02:25.307Z,2.62
2022-12-04T04:04:55.958Z,2.47
2022-12-04T04:07:41.823Z,2.38
2022-12-04T04:10:14.566Z,2.59
2022-12-04T04:13:04.364Z,2.85
2022-12-04T04:15:56.168Z,2.84
2022-12-04T04:18:23.047Z,2.86
2022-12-04T04:20:57.374Z,3.08
2022-12-04T04:23:25.870Z,3.09
2022-12-04T04:25:53.081Z,3.24
2022-12-04T04:28:31.102Z,3.29
2022-12-04T04:31:05.793Z,3.18
2022-12-04T04:33:36.564Z,3.13
2022-12-04T04:36:49.387Z,3.09
2022-12-04T04:39:33.928Z,3.07
2022-12-04T04:42:13.775Z,3.23
2022-12-04T04:44:47.332Z,3.39
2022-12-04T04:47:20.248Z,3.61
2022-12-04T04:49:49.072Z,3.65
2022-12-04T04:52:17.688Z,3.71
2022-12-04T04:54:44.775Z,3.78
2022-12-04T04:57:11.311Z,3.94
2022-12-04T04:59:38.178Z,4.31
2022-12-04T05:02:04.837Z,4.62
2022-12-04T05:04:31.382Z,4.44
2022-12-04T05:06:57.888Z,4.61
2022-12-04T05:09:24.468Z,4.58
2022-12-04T05:11:51.005Z,4.40
2022-12-04T05:14:17.483Z,4.31
2022-12-04T05:16:44.030Z,4.33
2022-12-04T05:19:10.535Z,4.22
2022-12-04T05:21:37.025Z,4.13
2022-12-04T05:24:03.570Z,4.15
2022-12-04T05:26:30.070Z,4.20
2022-12-04T05:28:56.564Z,4.09
2022-12-04T05:31:23.174Z,4.05
2022-12-04T05:33:49.706Z,4.07
2022-12-04T05:36:18.957Z,4.08
2022-12-04T05:38:45.574Z,4.03
2022-12-04T05:41:12.080Z,4.13
2022-12-04T05:43:38.569Z,4.12
2022-12-04T05:46:07.694Z,4.13
2022-12-04T05:48:35.377Z,4.04
2022-12-04T05:51:09.713Z,3.94
2022-12-04T05:53:37.587Z,4.04
2022-12-04T05:56:05.859Z,3.93
2022-12-04T05:58:35.522Z,4.12
2022-12-04T06:01:10.574Z,4.48
2022-12-04T06:03:37.351Z,4.64
2022-12-04T06:06:04.159Z,4.70
2022-12-04T06:08:31.989Z,5.01
2022-12-04T06:11:01.558Z,5.01
2022-12-04T06:13:28.145Z,5.11
2022-12-04T06:15:54.801Z,5.33
2022-12-04T06:18:21.501Z,5.49
2022-12-04T06:20:48.351Z,5.55
2022-12-04T06:23:14.921Z,5.67
2022-12-04T06:25:41.517Z,5.46
2022-12-04T06:28:08.464Z,5.35
2022-12-04T06:30:35.354Z,5.28
2022-12-04T06:33:01.920Z,4.87
2022-12-04T06:35:28.489Z,4.96
2022-12-04T06:37:54.997Z,5.03
2022-12-04T06:40:22.177Z,4.90
2022-12-04T06:42:48.817Z,4.70
2022-12-04T06:45:15.717Z,4.60
2022-12-04T06:47:42.315Z,4.57
2022-12-04T06:50:09.074Z,4.70
2022-12-04T06:52:35.725Z,4.77
2022-12-04T06:55:02.260Z,5.07
2022-12-04T06:57:28.745Z,5.22
2022-12-04T06:59:55.611Z,5.08
2022-12-04T07:02:22.329Z,5.01
2022-12-04T07:04:53.914Z,5.02
2022-12-04T07:07:20.473Z,5.18
2022-12-04T07:09:47.021Z,5.42
2022-12-04T07:12:13.522Z,5.44
2022-12-04T07:14:40.028Z,5.48
2022-12-04T07:17:06.591Z,5.47
2022-12-04T07:19:33.259Z,5.58
2022-12-04T07:21:59.721Z,5.58
2022-12-04T07:24:26.199Z,5.50
2022-12-04T07:26:52.765Z,5.36
2022-12-04T07:29:19.234Z,5.26
2022-12-04T07:31:45.760Z,4.92
2022-12-04T07:34:12.950Z,4.85
2022-12-04T07:36:39.794Z,4.74
2022-12-04T07:39:06.290Z,4.54
2022-12-04T07:41:32.792Z,4.54
2022-12-04T07:44:00.440Z,4.38
2022-12-04T07:46:28.177Z,4.41
2022-12-04T07:48:55.958Z,4.46
2022-12-04T07:51:25.404Z,4.77
2022-12-04T07:53:52.265Z,5.04
2022-12-04T07:56:19.272Z,5.27
2022-12-04T07:58:46.497Z,5.32
2022-12-04T08:01:19.113Z,5.26
2022-12-04T08:03:48.791Z,5.42
2022-12-04T08:06:17.985Z,5.52
2022-12-04T08:08:44.682Z,5.67
2022-12-04T08:11:15.236Z,5.59
2022-12-04T08:13:41.814Z,5.60
2022-12-04T08:16:10.191Z,5.76
2022-12-04T08:18:36.914Z,5.83
2022-12-04T08:21:08.971Z,5.84
2022-12-04T08:23:36.469Z,5.99
2022-12-04T08:26:03.879Z,6.09
2022-12-04T08:28:30.817Z,6.30
2022-12-04T08:31:03.685Z,6.62
2022-12-04T08:33:30.301Z,6.60
2022-12-04T08:35:57.060Z,6.79
2022-12-04T08:38:23.570Z,6.91
2022-12-04T08:40:50.066Z,6.91
2022-12-04T08:43:16.561Z,6.75
2022-12-04T08:45:43.162Z,6.92
2022-12-04T08:48:09.761Z,7.10
2022-12-04T08:50:36.225Z,6.91
2022-12-04T08:53:02.781Z,6.86
2022-12-04T08:55:32.767Z,7.04
2022-12-04T08:57:59.529Z,7.16
2022-12-04T09:00:26.392Z,7.07
2022-12-04T09:02:52.976Z,6.96
2022-12-04T09:05:19.775Z,7.30
2022-12-04T09:07:46.379Z,7.23
2022-12-04T09:10:13.026Z,7.25
2022-12-04T09:12:39.617Z,7.55
2022-12-04T09:15:06.860Z,7.64
2022-12-04T09:17:35.208Z,7.59
2022-12-04T09:20:03.001Z,7.68
2022-12-04T09:22:45.627Z,7.79
2022-12-04T09:25:19.695Z,7.86
2022-12-04T09:27:46.169Z,7.89
2022-12-04T09:30:14.150Z,8.08
2022-12-04T09:32:40.978Z,8.28
2022-12-04T09:35:07.856Z,8.37
2022-12-04T09:37:34.917Z,8.26
2022-12-04T09:40:01.396Z,8.44
2022-12-04T09:42:46.702Z,8.37
2022-12-04T09:45:19.029Z,8.36
2022-12-04T09:47:48.769Z,8.55
2022-12-04T09:50:20.145Z,8.51
2022-12-04T09:52:59.973Z,8.62
2022-12-04T09:55:47.783Z,8.71
2022-12-04T09:58:20.166Z,8.60
2022-12-04T10:00:51.957Z,8.27
2022-12-04T10:03:21.759Z,8.21
2022-12-04T10:06:12.747Z,8.25
2022-12-04T10:08:42.657Z,8.20
2022-12-04T10:11:32.849Z,8.21
2022-12-04T10:14:02.914Z,8.19
2022-12-04T10:16:57.968Z,7.99
2022-12-04T10:19:33.727Z,7.86
2022-12-04T10:22:23.259Z,7.99
2022-12-04T10:24:54.345Z,8.23
2022-12-04T10:27:28.242Z,8.40
2022-12-04T10:30:16.472Z,8.59
2022-12-04T10:32:48.400Z,8.59
2022-12-04T10:35:22.395Z,8.68
2022-12-04T10:37:59.396Z,8.66
2022-12-04T10:40:30.318Z,8.36
2022-12-04T10:43:06.238Z,8.17
2022-12-04T10:45:35.726Z,8.26
2022-12-04T10:48:02.479Z,7.97
2022-12-04T10:50:29.021Z,7.80
2022-12-04T10:52:56.881Z,8.07
2022-12-04T10:55:37.161Z,8.05
2022-12-04T10:58:03.719Z,8.22
2022-12-04T11:00:35.419Z,8.38
2022-12-04T11:03:19.910Z,8.40
2022-12-04T11:05:54.906Z,8.23
2022-12-04T11:08:26.459Z,8.06
2022-12-04T11:11:01.579Z,8.14
2022-12-04T11:13:28.441Z,8.19
2022-12-04T11:15:56.756Z,8.01
2022-12-04T11:18:27.623Z,8.19
2022-12-04T11:21:07.978Z,8.53
2022-12-04T11:23:35.140Z,8.68
2022-12-04T11:26:05.900Z,8.47
2022-12-04T11:28:42.122Z,8.72
2022-12-04T11:31:11.380Z,8.66
2022-12-04T11:34:01.594Z,8.98
2022-12-04T11:36:31.362Z,8.80
2022-12-04T11:39:20.659Z,9.00
2022-12-04T11:41:47.427Z,8.97
2022-12-04T11:44:35.281Z,9.16
2022-12-04T11:47:17.513Z,9.28
2022-12-04T11:49:44.122Z,9.28
2022-12-04T11:52:25.121Z,9.04
2022-12-04T11:55:08.073Z,8.81
2022-12-04T11:57:50.028Z,8.66
2022-12-04T12:00:21.312Z,8.60
2022-12-04T12:03:10.431Z,8.32
2022-12-04T12:05:42.840Z,8.47
2022-12-04T12:08:48.109Z,8.40
2022-12-04T12:11:18.710Z,8.43
2022-12-04T12:14:13.493Z,8.59
2022-12-04T12:17:08.942Z,8.62
2022-12-04T12:20:08.295Z,8.66
2022-12-04T12:23:10.413Z,8.81
2022-12-04T12:26:04.640Z,8.98
2022-12-04T12:28:37.415Z,9.04
2022-12-04T12:31:22.768Z,9.20
2022-12-04T12:33:56.163Z,9.26
2022-12-04T12:36:26.793Z,9.32
2022-12-04T12:39:05.687Z,9.45
2022-12-04T12:41:37.483Z,9.86
2022-12-04T12:44:05.786Z,9.95
2022-12-04T12:46:59.124Z,10.00
2022-12-04T12:49:47.867Z,10.40
2022-12-04T12:52:21.553Z,10.43
2022-12-04T12:54:48.908Z,9.74
2022-12-04T12:57:25.547Z,9.45
2022-12-04T13:00:06.721Z,9.01
2022-12-04T13:02:43.430Z,8.40
2022-12-04T13:05:12.760Z,8.54
2022-12-04T13:07:47.518Z,8.43
2022-12-04T13:10:21.736Z,8.59
2022-12-04T13:12:53.064Z,8.54
2022-12-04T13:15:22.696Z,8.71
2022-12-04T13:17:50.875Z,8.69
2022-12-04T13:20:25.357Z,8.96
2022-12-04T13:23:11.487Z,9.24
2022-12-04T13:25:59.296Z,9.30
2022-12-04T13:28:54.618Z,9.22
2022-12-04T13:31:34.073Z,9.20
2022-12-04T13:34:57.465Z,9.34
2022-12-04T13:37:23.931Z,9.43
2022-12-04T13:40:14.993Z,9.27
2022-12-04T13:42:41.922Z,9.15
2022-12-04T13:45:26.097Z,9.32
2022-12-04T13:48:00.717Z,9.19
2022-12-04T13:50:32.972Z,8.98
2022-12-04T13:52:59.497Z,8.88
2022-12-04T13:55:33.106Z,9.06
2022-12-04T13:58:32.799Z,8.95
2022-12-04T14:01:23.822Z,8.91
2022-12-04T14:03:51.813Z,8.92
2022-12-04T14:06:26.647Z,9.14
2022-12-04T14:09:00.733Z,9.21
2022-12-04T14:11:28.582Z,9.27
2022-12-04T14:13:56.929Z,9.37
2022-12-04T14:16:24.799Z,9.36
2022-12-04T14:19:01.812Z,8.97
2022-12-04T14:21:45.696Z,8.80
2022-12-04T14:24:38.830Z,8.69
2022-12-04T14:27:32.271Z,8.88
2022-12-04T14:29:59.094Z,8.64
2022-12-04T14:32:27.933Z,8.43
2022-12-04T14:34:55.159Z,8.23
2022-12-04T14:37:27.111Z,8.44
2022-12-04T14:39:56.624Z,8.34
2022-12-04T14:42:26.574Z,7.77
2022-12-04T14:45:00.239Z,7.62
2022-12-04T14:47:35.641Z,7.72
2022-12-04T14:50:23.285Z,7.98
2022-12-04T14:53:23.504Z,7.89
2022-12-04T14:56:16.064Z,7.75
2022-12-04T14:58:42.983Z,7.85
2022-12-04T15:01:29.364Z,7.99
2022-12-04T15:03:58.832Z,7.78
2022-12-04T15:06:30.519Z,7.73
2022-12-04T15:09:02.869Z,7.93
2022-12-04T15:11:29.351Z,7.67
2022-12-04T15:14:04.948Z,7.68
2022-12-04T15:16:32.317Z,7.56
2022-12-04T15:18:59.961Z,7.49
2022-12-04T15:21:40.190Z,7.17
2022-12-04T15:24:18.196Z,7.17
2022-12-04T15:26:44.931Z,7.18
2022-12-04T15:29:18.617Z,6.90
2022-12-04T15:31:48.143Z,7.11
2022-12-04T15:34:17.277Z,7.29
2022-12-04T15:36:49.509Z,7.36
2022-12-04T15:39:19.795Z,7.24
2022-12-04T15:41:46.377Z,7.52
2022-12-04T15:44:27.776Z,7.79
2022-12-04T15:46:55.919Z,7.90
2022-12-04T15:49:29.874Z,7.91
2022-12-04T15:52:27.794Z,7.95
2022-12-04T15:55:02.630Z,8.05
2022-12-04T15:57:42.700Z,8.14
2022-12-04T16:00:21.303Z,7.87
2022-12-04T16:02:48.301Z,7.89
2022-12-04T16:05:31.839Z,7.79
2022-12-04T16:08:00.577Z,7.80
2022-12-04T16:10:30.009Z,8.03
2022-12-04T16:12:59.375Z,7.91
2022-12-04T16:15:31.932Z,7.67
2022-12-04T16:17:58.654Z,7.83
2022-12-04T16:20:27.824Z,7.78
2022-12-04T16:22:54.769Z,7.85
2022-12-04T16:25:21.354Z,7.67
2022-12-04T16:27:47.834Z,7.63
2022-12-04T16:30:14.671Z,7.71
2022-12-04T16:32:41.372Z,7.74
2022-12-04T16:35:13.721Z,7.36
2022-12-04T16:37:40.227Z,7.37
2022-12-04T16:40:07.308Z,7.29
2022-12-04T16:42:33.869Z,7.51
2022-12-04T16:45:00.545Z,7.42
2022-12-04T16:47:27.235Z,7.61
2022-12-04T16:49:53.772Z,7.74
2022-12-04T16:52:20.598Z,7.89
2022-12-04T16:54:47.305Z,7.99
2022-12-04T16:57:13.830Z,8.11
2022-12-04T16:59:40.350Z,8.24
2022-12-04T17:02:16.025Z,8.18
2022-12-04T17:04:42.840Z,8.33
2022-12-04T17:07:10.133Z,8.44
2022-12-04T17:09:36.970Z,8.54
2022-12-04T17:12:03.624Z,8.63
2022-12-04T17:14:30.245Z,8.61
2022-12-04T17:16:56.747Z,8.70
2022-12-04T17:19:27.520Z,8.61
2022-12-04T17:21:54.003Z,8.56
2022-12-04T17:24:20.633Z,8.63
2022-12-04T17:26:47.993Z,8.45
2022-12-04T17:29:14.557Z,8.28
2022-12-04T17:31:41.119Z,8.03
2022-12-04T17:34:09.954Z,8.05
2022-12-04T17:36:36.502Z,7.99
2022-12-04T17:39:03.587Z,7.85
2022-12-04T17:41:30.153Z,7.62
2022-12-04T17:43:59.589Z,7.52
2022-12-04T17:46:26.222Z,7.61
2022-12-04T17:48:55.709Z,7.72
2022-12-04T17:51:24.978Z,7.34
2022-12-04T17:53:52.153Z,6.81
2022-12-04T17:56:21.461Z,6.80
2022-12-04T17:58:48.677Z,6.56
2022-12-04T18:01:17.861Z,6.45
2022-12-04T18:03:49.673Z,6.47
2022-12-04T18:06:17.662Z,6.56
2022-12-04T18:08:49.751Z,6.59
2022-12-04T18:11:17.799Z,6.62
2022-12-04T18:13:44.340Z,6.64
2022-12-04T18:16:11.276Z,6.54
2022-12-04T18:18:38.229Z,6.51
2022-12-04T18:21:11.026Z,6.22
2022-12-04T18:23:38.610Z,5.99
2022-12-04T18:26:05.102Z,5.84
2022-12-04T18:28:31.902Z,5.85
2022-12-04T18:31:06.202Z,5.67
2022-12-04T18:33:34.114Z,5.62
2022-12-04T18:36:01.021Z,5.59
2022-12-04T18:38:31.953Z,5.81
2022-12-04T18:41:06.689Z,5.92
2022-12-04T18:43:34.610Z,5.88
2022-12-04T18:46:07.311Z,5.82
2022-12-04T18:48:35.053Z,5.79
2022-12-04T18:51:02.489Z,5.77
2022-12-04T18:53:30.458Z,5.81
2022-12-04T18:56:01.975Z,5.76
2022-12-04T18:58:28.533Z,5.69
2022-12-04T19:00:55.155Z,5.66
2022-12-04T19:03:21.665Z,5.63
2022-12-04T19:05:51.502Z,5.80
2022-12-04T19:08:18.102Z,5.86
2022-12-04T19:10:44.705Z,6.03
2022-12-04T19:13:11.205Z,5.78
2022-12-04T19:15:44.537Z,5.71
2022-12-04T19:18:11.634Z,5.58
2022-12-04T19:20:42.724Z,5.38
2022-12-04T19:23:09.296Z,5.26
2022-12-04T19:25:35.820Z,5.38
2022-12-04T19:28:03.524Z,5.64
2022-12-04T19:30:30.162Z,5.83
2022-12-04T19:32:57.006Z,6.18
2022-12-04T19:35:23.601Z,6.46
2022-12-04T19:37:56.301Z,6.69
2022-12-04T19:40:22.862Z,6.98
2022-12-04T19:42:49.397Z,7.04
2022-12-04T19:45:15.949Z,6.97
2022-12-04T19:47:42.426Z,7.10
2022-12-04T19:50:09.353Z,7.17
2022-12-04T19:52:35.883Z,7.28
2022-12-04T19:55:02.533Z,7.53
2022-12-04T19:57:29.073Z,7.62
2022-12-04T19:59:55.657Z,7.57
2022-12-04T20:02:22.196Z,7.41
2022-12-04T20:04:48.876Z,7.45
2022-12-04T20:07:15.377Z,7.59
2022-12-04T20:09:44.913Z,7.76
2022-12-04T20:12:14.019Z,7.78
2022-12-04T20:14:40.560Z,7.77
2022-12-04T20:17:07.266Z,7.71
2022-12-04T20:19:33.876Z,7.38
2022-12-04T20:22:03.185Z,7.58
2022-12-04T20:24:29.700Z,7.28
2022-12-04T20:26:56.927Z,7.23
2022-12-04T20:29:23.520Z,7.13
2022-12-04T20:31:50.377Z,7.06
2022-12-04T20:34:18.679Z,7.26
2022-12-04T20:36:47.267Z,7.28
2022-12-04T20:39:15.009Z,7.53
2022-12-04T20:41:41.625Z,7.78
2022-12-04T20:44:10.767Z,7.91
2022-12-04T20:46:41.024Z,8.06
2022-12-04T20:49:13.455Z,8.17
2022-12-04T20:51:44.452Z,8.20
2022-12-04T20:54:15.522Z,8.28
2022-12-04T20:56:42.149Z,8.25
2022-12-04T20:59:12.148Z,8.23
2022-12-04T21:01:40.276Z,8.25
2022-12-04T21:04:06.992Z,8.13
2022-12-04T21:06:38.598Z,7.72
2022-12-04T21:09:12.158Z,7.55
2022-12-04T21:11:43.993Z,7.52
2022-12-04T21:14:13.953Z,7.40
2022-12-04T21:16:40.757Z,7.17
2022-12-04T21:19:08.713Z,6.93
2022-12-04T21:21:35.856Z,6.69
2022-12-04T21:24:03.369Z,6.38
2022-12-04T21:26:30.041Z,6.47
2022-12-04T21:28:57.590Z,6.21
2022-12-04T21:31:24.817Z,6.06
2022-12-04T21:33:51.378Z,5.89
2022-12-04T21:36:18.109Z,5.67
2022-12-04T21:38:44.734Z,5.32
2022-12-04T21:41:11.802Z,5.34
2022-12-04T21:43:38.358Z,5.19
2022-12-04T21:46:13.821Z,5.13
2022-12-04T21:48:40.823Z,5.35
2022-12-04T21:51:16.881Z,5.39
2022-12-04T21:53:54.179Z,5.32
2022-12-04T21:56:21.733Z,4.87
2022-12-04T21:58:48.319Z,4.51
2022-12-04T22:01:16.299Z,4.67
2022-12-04T22:03:43.533Z,4.71
2022-12-04T22:06:10.584Z,4.68
2022-12-04T22:08:39.323Z,4.51
2022-12-04T22:11:10.764Z,4.72
2022-12-04T22:13:37.908Z,4.91
2022-12-04T22:16:07.403Z,5.17
2022-12-04T22:18:34.706Z,5.31
2022-12-04T22:21:04.767Z,5.63
2022-12-04T22:23:32.841Z,5.83
2022-12-04T22:26:15.061Z,6.18
2022-12-04T22:28:42.606Z,6.16
2022-12-04T22:31:12.945Z,6.46
2022-12-04T22:33:39.604Z,6.68
2022-12-04T22:36:16.670Z,6.72
2022-12-04T22:39:05.982Z,6.84
2022-12-04T22:41:31.459Z,6.77
2022-12-04T22:43:58.739Z,6.91
2022-12-04T22:46:25.814Z,6.96
2022-12-04T22:48:52.458Z,6.78
2022-12-04T22:51:21.937Z,6.68
2022-12-04T22:53:50.980Z,6.69
2022-12-04T22:56:24.033Z,6.41
2022-12-04T22:58:51.663Z,6.32
2022-12-04T23:01:23.998Z,6.41
2022-12-04T23:03:51.562Z,6.13
2022-12-04T23:06:21.020Z,6.17
2022-12-04T23:08:47.766Z,6.18
2022-12-04T23:11:19.640Z,6.09
2022-12-04T23:13:57.508Z,6.16
2022-12-04T23:16:24.709Z,6.16
2022-12-04T23:18:51.606Z,5.99
2022-12-04T23:21:19.909Z,6.09
2022-12-04T23:23:47.546Z,6.04
2022-12-04T23:26:16.705Z,5.85
2022-12-04T23:28:43.530Z,5.93
2022-12-04T23:31:10.304Z,5.83
2022-12-04T23:33:37.838Z,5.96
2022-12-04T23:36:05.389Z,5.82
2022-12-04T23:38:32.030Z,5.81
2022-12-04T23:41:05.991Z,5.76
2022-12-04T23:43:33.223Z,5.70
2022-12-04T23:45:59.710Z,5.81
2022-12-04T23:48:26.721Z,5.83
2022-12-04T23:50:53.561Z,5.89
2022-12-04T23:53:28.577Z,5.82
2022-12-04T23:56:07.053Z,5.67
2022-12-04T23:58:35.819Z,5.82
